sensor_id;sensor_type;location;lat;lon;timestamp;P1;durP1;ratioP1;P2;durP2;ratioP2
67867;SDS011;54672;46.096;14.470;2023-08-06T00:00:37;3.97;;;1.80;;
67867;SDS011;54672;46.096;14.470;2023-08-06T00:03:02;3.72;;;2.40;;
67867;SDS011;54672;46.096;14.470;2023-08-06T00:05:28;5.47;;;2.88;;
67867;SDS011;54672;46.096;14.470;2023-08-06T00:07:53;6.45;;;3.60;;
67867;SDS011;54672;46.096;14.470;2023-08-06T00:10:19;8.98;;;4.78;;
67867;SDS011;54672;46.096;14.470;2023-08-06T00:12:44;8.40;;;4.68;;
67867;SDS011;54672;46.096;14.470;2023-08-06T00:15:10;9.27;;;4.45;;
67867;SDS011;54672;46.096;14.470;2023-08-06T00:17:36;7.07;;;3.78;;
67867;SDS011;54672;46.096;14.470;2023-08-06T00:20:02;5.80;;;3.25;;
67867;SDS011;54672;46.096;14.470;2023-08-06T00:22:33;6.72;;;3.33;;
67867;SDS011;54672;46.096;14.470;2023-08-06T00:24:59;6.50;;;3.45;;
67867;SDS011;54672;46.096;14.470;2023-08-06T00:27:25;3.85;;;2.30;;
67867;SDS011;54672;46.096;14.470;2023-08-06T00:29:51;3.05;;;2.00;;
67867;SDS011;54672;46.096;14.470;2023-08-06T00:32:17;4.70;;;2.00;;
67867;SDS011;54672;46.096;14.470;2023-08-06T00:34:42;3.60;;;2.25;;
67867;SDS011;54672;46.096;14.470;2023-08-06T00:37:08;4.90;;;2.90;;
67867;SDS011;54672;46.096;14.470;2023-08-06T00:39:33;5.88;;;2.47;;
67867;SDS011;54672;46.096;14.470;2023-08-06T00:41:59;4.30;;;2.65;;
67867;SDS011;54672;46.096;14.470;2023-08-06T00:44:24;6.10;;;2.60;;
67867;SDS011;54672;46.096;14.470;2023-08-06T00:46:50;5.07;;;2.75;;
67867;SDS011;54672;46.096;14.470;2023-08-06T00:49:15;4.45;;;2.70;;
67867;SDS011;54672;46.096;14.470;2023-08-06T00:51:41;5.20;;;2.65;;
67867;SDS011;54672;46.096;14.470;2023-08-06T00:54:08;4.03;;;2.45;;
67867;SDS011;54672;46.096;14.470;2023-08-06T00:56:34;6.03;;;2.60;;
67867;SDS011;54672;46.096;14.470;2023-08-06T00:59:03;5.18;;;2.80;;
67867;SDS011;54672;46.096;14.470;2023-08-06T01:01:30;6.13;;;3.30;;
67867;SDS011;54672;46.096;14.470;2023-08-06T01:03:56;9.38;;;3.38;;
67867;SDS011;54672;46.096;14.470;2023-08-06T01:06:24;7.20;;;3.38;;
67867;SDS011;54672;46.096;14.470;2023-08-06T01:15:04;7.47;;;3.75;;
67867;SDS011;54672;46.096;14.470;2023-08-06T01:17:35;6.95;;;3.33;;
67867;SDS011;54672;46.096;14.470;2023-08-06T01:20:01;5.88;;;3.72;;
67867;SDS011;54672;46.096;14.470;2023-08-06T01:22:27;6.15;;;3.85;;
67867;SDS011;54672;46.096;14.470;2023-08-06T01:24:52;5.00;;;3.17;;
67867;SDS011;54672;46.096;14.470;2023-08-06T01:27:27;4.85;;;3.10;;
67867;SDS011;54672;46.096;14.470;2023-08-06T01:30:02;5.72;;;3.20;;
67867;SDS011;54672;46.096;14.470;2023-08-06T01:32:32;7.53;;;2.78;;
67867;SDS011;54672;46.096;14.470;2023-08-06T01:35:00;4.75;;;2.53;;
67867;SDS011;54672;46.096;14.470;2023-08-06T01:37:27;4.18;;;2.58;;
67867;SDS011;54672;46.096;14.470;2023-08-06T01:39:53;3.88;;;2.40;;
67867;SDS011;54672;46.096;14.470;2023-08-06T01:42:18;5.38;;;2.90;;
67867;SDS011;54672;46.096;14.470;2023-08-06T01:44:44;3.92;;;2.40;;
67867;SDS011;54672;46.096;14.470;2023-08-06T01:47:09;4.00;;;2.60;;
67867;SDS011;54672;46.096;14.470;2023-08-06T01:49:35;3.97;;;2.40;;
67867;SDS011;54672;46.096;14.470;2023-08-06T01:52:00;4.18;;;2.28;;
67867;SDS011;54672;46.096;14.470;2023-08-06T01:54:26;3.47;;;2.33;;
67867;SDS011;54672;46.096;14.470;2023-08-06T01:56:52;2.40;;;1.52;;
67867;SDS011;54672;46.096;14.470;2023-08-06T01:59:18;2.80;;;1.80;;
67867;SDS011;54672;46.096;14.470;2023-08-06T02:01:43;2.72;;;1.75;;
67867;SDS011;54672;46.096;14.470;2023-08-06T02:04:09;2.00;;;1.40;;
67867;SDS011;54672;46.096;14.470;2023-08-06T02:06:35;3.08;;;1.40;;
67867;SDS011;54672;46.096;14.470;2023-08-06T02:09:00;1.80;;;1.17;;
67867;SDS011;54672;46.096;14.470;2023-08-06T02:11:26;2.78;;;1.33;;
67867;SDS011;54672;46.096;14.470;2023-08-06T02:13:51;4.53;;;1.50;;
67867;SDS011;54672;46.096;14.470;2023-08-06T02:16:17;2.58;;;1.52;;
67867;SDS011;54672;46.096;14.470;2023-08-06T02:18:42;2.10;;;1.50;;
67867;SDS011;54672;46.096;14.470;2023-08-06T02:21:08;2.05;;;1.40;;
67867;SDS011;54672;46.096;14.470;2023-08-06T02:23:33;2.58;;;1.50;;
67867;SDS011;54672;46.096;14.470;2023-08-06T02:26:02;2.50;;;1.42;;
67867;SDS011;54672;46.096;14.470;2023-08-06T02:28:30;3.08;;;1.55;;
67867;SDS011;54672;46.096;14.470;2023-08-06T02:30:56;2.80;;;1.30;;
67867;SDS011;54672;46.096;14.470;2023-08-06T02:33:21;3.75;;;1.42;;
67867;SDS011;54672;46.096;14.470;2023-08-06T02:35:47;2.58;;;1.70;;
67867;SDS011;54672;46.096;14.470;2023-08-06T02:38:12;3.03;;;1.70;;
67867;SDS011;54672;46.096;14.470;2023-08-06T02:40:47;3.47;;;1.70;;
67867;SDS011;54672;46.096;14.470;2023-08-06T02:43:13;3.10;;;1.70;;
67867;SDS011;54672;46.096;14.470;2023-08-06T02:45:38;2.95;;;2.13;;
67867;SDS011;54672;46.096;14.470;2023-08-06T02:48:04;5.82;;;2.47;;
67867;SDS011;54672;46.096;14.470;2023-08-06T02:50:30;5.82;;;1.70;;
67867;SDS011;54672;46.096;14.470;2023-08-06T02:52:55;6.95;;;1.77;;
67867;SDS011;54672;46.096;14.470;2023-08-06T02:55:21;2.97;;;1.80;;
67867;SDS011;54672;46.096;14.470;2023-08-06T02:57:46;2.72;;;1.67;;
67867;SDS011;54672;46.096;14.470;2023-08-06T03:00:12;4.05;;;1.90;;
67867;SDS011;54672;46.096;14.470;2023-08-06T03:02:37;4.20;;;2.42;;
67867;SDS011;54672;46.096;14.470;2023-08-06T03:05:03;4.97;;;2.10;;
67867;SDS011;54672;46.096;14.470;2023-08-06T03:07:29;3.13;;;2.10;;
67867;SDS011;54672;46.096;14.470;2023-08-06T03:09:55;3.70;;;2.35;;
67867;SDS011;54672;46.096;14.470;2023-08-06T03:12:20;3.28;;;2.28;;
67867;SDS011;54672;46.096;14.470;2023-08-06T03:14:46;3.22;;;2.10;;
67867;SDS011;54672;46.096;14.470;2023-08-06T03:17:11;4.35;;;2.25;;
67867;SDS011;54672;46.096;14.470;2023-08-06T03:19:37;4.68;;;2.20;;
67867;SDS011;54672;46.096;14.470;2023-08-06T03:22:02;5.05;;;2.40;;
67867;SDS011;54672;46.096;14.470;2023-08-06T03:24:28;6.35;;;2.63;;
67867;SDS011;54672;46.096;14.470;2023-08-06T03:26:53;5.60;;;2.40;;
67867;SDS011;54672;46.096;14.470;2023-08-06T03:29:19;4.03;;;2.33;;
67867;SDS011;54672;46.096;14.470;2023-08-06T03:31:46;5.70;;;2.63;;
67867;SDS011;54672;46.096;14.470;2023-08-06T03:34:11;5.80;;;2.53;;
67867;SDS011;54672;46.096;14.470;2023-08-06T03:36:37;4.35;;;2.45;;
67867;SDS011;54672;46.096;14.470;2023-08-06T03:39:02;5.80;;;2.40;;
67867;SDS011;54672;46.096;14.470;2023-08-06T03:41:28;5.25;;;2.10;;
67867;SDS011;54672;46.096;14.470;2023-08-06T03:43:53;6.82;;;2.20;;
67867;SDS011;54672;46.096;14.470;2023-08-06T03:46:19;4.47;;;2.20;;
67867;SDS011;54672;46.096;14.470;2023-08-06T03:48:44;4.95;;;2.25;;
67867;SDS011;54672;46.096;14.470;2023-08-06T03:51:10;5.07;;;2.10;;
67867;SDS011;54672;46.096;14.470;2023-08-06T03:53:35;3.50;;;2.08;;
67867;SDS011;54672;46.096;14.470;2023-08-06T03:56:01;3.67;;;2.00;;
67867;SDS011;54672;46.096;14.470;2023-08-06T03:58:26;4.30;;;2.30;;
67867;SDS011;54672;46.096;14.470;2023-08-06T04:01:01;3.95;;;2.20;;
67867;SDS011;54672;46.096;14.470;2023-08-06T04:03:28;3.83;;;2.33;;
67867;SDS011;54672;46.096;14.470;2023-08-06T04:05:54;3.70;;;2.20;;
67867;SDS011;54672;46.096;14.470;2023-08-06T04:08:19;3.40;;;2.25;;
67867;SDS011;54672;46.096;14.470;2023-08-06T04:10:45;4.28;;;2.60;;
67867;SDS011;54672;46.096;14.470;2023-08-06T04:13:10;3.92;;;2.30;;
67867;SDS011;54672;46.096;14.470;2023-08-06T04:15:36;3.40;;;1.88;;
67867;SDS011;54672;46.096;14.470;2023-08-06T04:18:01;4.85;;;2.33;;
67867;SDS011;54672;46.096;14.470;2023-08-06T04:20:27;4.22;;;2.17;;
67867;SDS011;54672;46.096;14.470;2023-08-06T04:22:54;3.25;;;2.10;;
67867;SDS011;54672;46.096;14.470;2023-08-06T04:25:20;3.45;;;2.08;;
67867;SDS011;54672;46.096;14.470;2023-08-06T04:27:48;2.90;;;1.80;;
67867;SDS011;54672;46.096;14.470;2023-08-06T04:30:14;3.03;;;1.90;;
67867;SDS011;54672;46.096;14.470;2023-08-06T04:32:40;2.90;;;1.80;;
67867;SDS011;54672;46.096;14.470;2023-08-06T04:35:05;2.25;;;1.60;;
67867;SDS011;54672;46.096;14.470;2023-08-06T04:37:32;2.58;;;1.70;;
67867;SDS011;54672;46.096;14.470;2023-08-06T04:39:57;3.10;;;1.70;;
67867;SDS011;54672;46.096;14.470;2023-08-06T04:42:23;2.45;;;1.70;;
67867;SDS011;54672;46.096;14.470;2023-08-06T04:44:49;2.58;;;1.77;;
67867;SDS011;54672;46.096;14.470;2023-08-06T04:47:15;3.22;;;1.90;;
67867;SDS011;54672;46.096;14.470;2023-08-06T04:49:40;3.22;;;2.00;;
67867;SDS011;54672;46.096;14.470;2023-08-06T04:52:06;3.67;;;1.85;;
67867;SDS011;54672;46.096;14.470;2023-08-06T04:54:31;2.17;;;1.50;;
67867;SDS011;54672;46.096;14.470;2023-08-06T04:56:57;2.58;;;1.50;;
67867;SDS011;54672;46.096;14.470;2023-08-06T04:59:22;1.67;;;1.17;;
67867;SDS011;54672;46.096;14.470;2023-08-06T05:01:48;3.58;;;1.60;;
67867;SDS011;54672;46.096;14.470;2023-08-06T05:04:13;2.28;;;1.13;;
67867;SDS011;54672;46.096;14.470;2023-08-06T05:06:38;3.45;;;1.60;;
67867;SDS011;54672;46.096;14.470;2023-08-06T05:09:05;2.40;;;1.50;;
67867;SDS011;54672;46.096;14.470;2023-08-06T05:11:31;1.77;;;1.20;;
67867;SDS011;54672;46.096;14.470;2023-08-06T05:13:57;3.88;;;1.27;;
67867;SDS011;54672;46.096;14.470;2023-08-06T05:16:22;2.83;;;1.10;;
67867;SDS011;54672;46.096;14.470;2023-08-06T05:18:49;2.60;;;1.48;;
67867;SDS011;54672;46.096;14.470;2023-08-06T05:21:14;2.03;;;1.10;;
67867;SDS011;54672;46.096;14.470;2023-08-06T05:23:41;3.17;;;1.17;;
67867;SDS011;54672;46.096;14.470;2023-08-06T05:26:07;1.27;;;0.90;;
67867;SDS011;54672;46.096;14.470;2023-08-06T05:28:32;2.95;;;1.10;;
67867;SDS011;54672;46.096;14.470;2023-08-06T05:31:02;2.95;;;1.83;;
67867;SDS011;54672;46.096;14.470;2023-08-06T05:33:28;2.30;;;1.20;;
67867;SDS011;54672;46.096;14.470;2023-08-06T05:35:53;2.22;;;1.60;;
67867;SDS011;54672;46.096;14.470;2023-08-06T05:38:19;2.97;;;1.58;;
67867;SDS011;54672;46.096;14.470;2023-08-06T05:40:44;2.42;;;1.45;;
67867;SDS011;54672;46.096;14.470;2023-08-06T05:43:10;3.15;;;1.83;;
67867;SDS011;54672;46.096;14.470;2023-08-06T05:45:35;3.75;;;1.92;;
67867;SDS011;54672;46.096;14.470;2023-08-06T05:48:01;3.85;;;2.10;;
67867;SDS011;54672;46.096;14.470;2023-08-06T05:50:26;4.03;;;2.30;;
67867;SDS011;54672;46.096;14.470;2023-08-06T05:52:52;4.50;;;2.60;;
67867;SDS011;54672;46.096;14.470;2023-08-06T05:55:18;5.90;;;2.80;;
67867;SDS011;54672;46.096;14.470;2023-08-06T05:57:45;5.57;;;2.60;;
67867;SDS011;54672;46.096;14.470;2023-08-06T06:00:10;4.88;;;2.70;;
67867;SDS011;54672;46.096;14.470;2023-08-06T06:02:36;3.97;;;2.40;;
67867;SDS011;54672;46.096;14.470;2023-08-06T06:05:01;5.45;;;2.70;;
67867;SDS011;54672;46.096;14.470;2023-08-06T06:07:27;5.72;;;2.35;;
67867;SDS011;54672;46.096;14.470;2023-08-06T06:09:52;5.68;;;2.58;;
67867;SDS011;54672;46.096;14.470;2023-08-06T06:12:18;5.10;;;2.75;;
67867;SDS011;54672;46.096;14.470;2023-08-06T06:14:43;4.45;;;2.58;;
67867;SDS011;54672;46.096;14.470;2023-08-06T06:17:09;4.75;;;2.63;;
67867;SDS011;54672;46.096;14.470;2023-08-06T06:19:34;4.53;;;2.40;;
67867;SDS011;54672;46.096;14.470;2023-08-06T06:21:59;5.20;;;2.92;;
67867;SDS011;54672;46.096;14.470;2023-08-06T06:24:25;8.60;;;2.63;;
67867;SDS011;54672;46.096;14.470;2023-08-06T06:26:50;3.58;;;1.98;;
67867;SDS011;54672;46.096;14.470;2023-08-06T06:29:16;3.45;;;1.92;;
67867;SDS011;54672;46.096;14.470;2023-08-06T06:31:41;3.53;;;2.00;;
67867;SDS011;54672;46.096;14.470;2023-08-06T06:34:07;5.00;;;2.00;;
67867;SDS011;54672;46.096;14.470;2023-08-06T06:36:32;3.45;;;2.00;;
67867;SDS011;54672;46.096;14.470;2023-08-06T06:38:58;4.38;;;2.30;;
67867;SDS011;54672;46.096;14.470;2023-08-06T06:41:23;4.20;;;1.90;;
67867;SDS011;54672;46.096;14.470;2023-08-06T06:43:49;5.60;;;2.05;;
67867;SDS011;54672;46.096;14.470;2023-08-06T06:46:14;4.13;;;2.10;;
67867;SDS011;54672;46.096;14.470;2023-08-06T06:48:40;5.35;;;2.28;;
67867;SDS011;54672;46.096;14.470;2023-08-06T06:51:05;2.92;;;1.80;;
67867;SDS011;54672;46.096;14.470;2023-08-06T06:53:31;3.67;;;2.25;;
67867;SDS011;54672;46.096;14.470;2023-08-06T06:55:56;2.60;;;1.77;;
67867;SDS011;54672;46.096;14.470;2023-08-06T06:58:27;2.75;;;1.88;;
67867;SDS011;54672;46.096;14.470;2023-08-06T07:00:53;2.17;;;1.50;;
67867;SDS011;54672;46.096;14.470;2023-08-06T07:03:19;3.13;;;2.08;;
67867;SDS011;54672;46.096;14.470;2023-08-06T07:05:45;3.25;;;1.73;;
67867;SDS011;54672;46.096;14.470;2023-08-06T07:08:10;3.00;;;1.80;;
67867;SDS011;54672;46.096;14.470;2023-08-06T07:10:36;2.78;;;1.75;;
67867;SDS011;54672;46.096;14.470;2023-08-06T07:13:02;3.42;;;1.73;;
67867;SDS011;54672;46.096;14.470;2023-08-06T07:15:27;2.50;;;1.73;;
67867;SDS011;54672;46.096;14.470;2023-08-06T07:17:53;4.30;;;1.80;;
67867;SDS011;54672;46.096;14.470;2023-08-06T07:20:18;3.10;;;1.90;;
67867;SDS011;54672;46.096;14.470;2023-08-06T07:22:44;3.20;;;2.17;;
67867;SDS011;54672;46.096;14.470;2023-08-06T07:25:10;2.90;;;1.67;;
67867;SDS011;54672;46.096;14.470;2023-08-06T07:27:35;2.80;;;1.33;;
67867;SDS011;54672;46.096;14.470;2023-08-06T07:30:01;2.42;;;1.30;;
67867;SDS011;54672;46.096;14.470;2023-08-06T07:32:26;3.72;;;1.48;;
67867;SDS011;54672;46.096;14.470;2023-08-06T07:34:53;2.38;;;1.58;;
67867;SDS011;54672;46.096;14.470;2023-08-06T07:37:22;3.83;;;2.25;;
67867;SDS011;54672;46.096;14.470;2023-08-06T07:39:48;3.47;;;2.28;;
67867;SDS011;54672;46.096;14.470;2023-08-06T07:42:13;4.13;;;2.00;;
67867;SDS011;54672;46.096;14.470;2023-08-06T07:44:39;3.10;;;1.80;;
67867;SDS011;54672;46.096;14.470;2023-08-06T07:47:04;3.08;;;1.40;;
67867;SDS011;54672;46.096;14.470;2023-08-06T07:49:30;2.95;;;1.38;;
67867;SDS011;54672;46.096;14.470;2023-08-06T07:51:56;1.70;;;1.15;;
67867;SDS011;54672;46.096;14.470;2023-08-06T07:54:21;0.82;;;0.73;;
67867;SDS011;54672;46.096;14.470;2023-08-06T07:56:48;1.70;;;0.95;;
67867;SDS011;54672;46.096;14.470;2023-08-06T07:59:14;3.70;;;1.00;;
67867;SDS011;54672;46.096;14.470;2023-08-06T08:01:39;1.23;;;0.90;;
67867;SDS011;54672;46.096;14.470;2023-08-06T08:04:05;2.92;;;1.20;;
67867;SDS011;54672;46.096;14.470;2023-08-06T08:06:30;2.00;;;0.80;;
67867;SDS011;54672;46.096;14.470;2023-08-06T08:08:56;1.60;;;0.75;;
67867;SDS011;54672;46.096;14.470;2023-08-06T08:11:21;1.63;;;0.90;;
67867;SDS011;54672;46.096;14.470;2023-08-06T08:13:47;1.00;;;0.90;;
67867;SDS011;54672;46.096;14.470;2023-08-06T08:16:12;1.05;;;0.70;;
67867;SDS011;54672;46.096;14.470;2023-08-06T08:18:38;1.60;;;1.00;;
67867;SDS011;54672;46.096;14.470;2023-08-06T08:21:03;0.90;;;0.70;;
67867;SDS011;54672;46.096;14.470;2023-08-06T08:23:29;1.08;;;0.90;;
67867;SDS011;54672;46.096;14.470;2023-08-06T08:25:56;1.10;;;0.80;;
67867;SDS011;54672;46.096;14.470;2023-08-06T08:28:21;2.35;;;0.82;;
67867;SDS011;54672;46.096;14.470;2023-08-06T08:30:47;1.55;;;1.00;;
67867;SDS011;54672;46.096;14.470;2023-08-06T08:33:13;1.73;;;0.80;;
67867;SDS011;54672;46.096;14.470;2023-08-06T08:35:38;1.42;;;0.75;;
67867;SDS011;54672;46.096;14.470;2023-08-06T08:38:04;1.05;;;0.60;;
67867;SDS011;54672;46.096;14.470;2023-08-06T08:40:32;0.80;;;0.80;;
67867;SDS011;54672;46.096;14.470;2023-08-06T08:43:02;1.48;;;0.85;;
67867;SDS011;54672;46.096;14.470;2023-08-06T08:45:28;0.80;;;0.77;;
67867;SDS011;54672;46.096;14.470;2023-08-06T08:47:54;1.02;;;0.70;;
67867;SDS011;54672;46.096;14.470;2023-08-06T08:50:21;1.20;;;0.70;;
67867;SDS011;54672;46.096;14.470;2023-08-06T08:52:46;1.90;;;0.80;;
67867;SDS011;54672;46.096;14.470;2023-08-06T08:55:14;1.65;;;0.70;;
67867;SDS011;54672;46.096;14.470;2023-08-06T08:57:40;0.98;;;0.77;;
67867;SDS011;54672;46.096;14.470;2023-08-06T09:00:06;1.45;;;0.80;;
67867;SDS011;54672;46.096;14.470;2023-08-06T09:02:32;6.07;;;2.10;;
67867;SDS011;54672;46.096;14.470;2023-08-06T09:04:59;2.53;;;1.15;;
67867;SDS011;54672;46.096;14.470;2023-08-06T09:07:29;2.28;;;1.33;;
67867;SDS011;54672;46.096;14.470;2023-08-06T09:10:00;2.10;;;1.05;;
67867;SDS011;54672;46.096;14.470;2023-08-06T09:12:29;1.95;;;1.00;;
67867;SDS011;54672;46.096;14.470;2023-08-06T09:14:54;0.98;;;0.60;;
67867;SDS011;54672;46.096;14.470;2023-08-06T09:17:20;1.20;;;0.80;;
67867;SDS011;54672;46.096;14.470;2023-08-06T09:19:46;1.27;;;0.75;;
67867;SDS011;54672;46.096;14.470;2023-08-06T09:22:13;2.50;;;0.90;;
67867;SDS011;54672;46.096;14.470;2023-08-06T09:24:39;0.80;;;0.60;;
67867;SDS011;54672;46.096;14.470;2023-08-06T09:27:10;2.42;;;0.65;;
67867;SDS011;54672;46.096;14.470;2023-08-06T09:29:39;2.17;;;0.80;;
67867;SDS011;54672;46.096;14.470;2023-08-06T09:32:05;0.95;;;0.70;;
67867;SDS011;54672;46.096;14.470;2023-08-06T09:34:31;0.77;;;0.70;;
67867;SDS011;54672;46.096;14.470;2023-08-06T09:36:56;1.55;;;0.77;;
67867;SDS011;54672;46.096;14.470;2023-08-06T09:39:26;2.60;;;1.80;;
67867;SDS011;54672;46.096;14.470;2023-08-06T09:41:56;0.75;;;0.60;;
67867;SDS011;54672;46.096;14.470;2023-08-06T09:44:24;1.00;;;0.77;;
67867;SDS011;54672;46.096;14.470;2023-08-06T09:46:52;2.35;;;1.20;;
67867;SDS011;54672;46.096;14.470;2023-08-06T09:49:19;3.95;;;1.20;;
67867;SDS011;54672;46.096;14.470;2023-08-06T09:51:46;2.85;;;1.02;;
67867;SDS011;54672;46.096;14.470;2023-08-06T09:54:15;1.40;;;0.75;;
67867;SDS011;54672;46.096;14.470;2023-08-06T09:56:42;1.23;;;0.80;;
67867;SDS011;54672;46.096;14.470;2023-08-06T09:59:08;1.42;;;0.82;;
67867;SDS011;54672;46.096;14.470;2023-08-06T10:01:34;1.38;;;0.80;;
67867;SDS011;54672;46.096;14.470;2023-08-06T10:04:04;1.80;;;1.00;;
67867;SDS011;54672;46.096;14.470;2023-08-06T10:06:34;1.15;;;1.05;;
67867;SDS011;54672;46.096;14.470;2023-08-06T10:09:06;1.40;;;0.70;;
67867;SDS011;54672;46.096;14.470;2023-08-06T10:11:32;2.70;;;1.05;;
67867;SDS011;54672;46.096;14.470;2023-08-06T10:14:00;1.30;;;0.80;;
67867;SDS011;54672;46.096;14.470;2023-08-06T10:16:31;1.05;;;0.80;;
67867;SDS011;54672;46.096;14.470;2023-08-06T10:18:58;0.93;;;0.68;;
67867;SDS011;54672;46.096;14.470;2023-08-06T10:21:24;2.83;;;1.08;;
67867;SDS011;54672;46.096;14.470;2023-08-06T10:23:55;1.50;;;0.80;;
67867;SDS011;54672;46.096;14.470;2023-08-06T10:26:24;1.52;;;0.90;;
67867;SDS011;54672;46.096;14.470;2023-08-06T10:31:19;1.33;;;0.73;;
67867;SDS011;54672;46.096;14.470;2023-08-06T10:33:45;1.13;;;0.70;;
67867;SDS011;54672;46.096;14.470;2023-08-06T10:36:13;1.67;;;0.90;;
67867;SDS011;54672;46.096;14.470;2023-08-06T10:38:46;1.40;;;0.98;;
67867;SDS011;54672;46.096;14.470;2023-08-06T10:41:16;1.10;;;0.80;;
67867;SDS011;54672;46.096;14.470;2023-08-06T10:44:06;0.95;;;0.80;;
67867;SDS011;54672;46.096;14.470;2023-08-06T10:49:01;1.80;;;0.90;;
67867;SDS011;54672;46.096;14.470;2023-08-06T10:51:27;1.27;;;0.95;;
67867;SDS011;54672;46.096;14.470;2023-08-06T10:53:52;0.95;;;0.70;;
67867;SDS011;54672;46.096;14.470;2023-08-06T10:56:19;2.10;;;0.88;;
67867;SDS011;54672;46.096;14.470;2023-08-06T10:58:50;0.83;;;0.70;;
67867;SDS011;54672;46.096;14.470;2023-08-06T11:01:17;2.08;;;0.77;;
67867;SDS011;54672;46.096;14.470;2023-08-06T11:03:43;0.50;;;0.50;;
67867;SDS011;54672;46.096;14.470;2023-08-06T11:06:10;0.70;;;0.60;;
67867;SDS011;54672;46.096;14.470;2023-08-06T11:08:47;1.17;;;0.32;;
67867;SDS011;54672;46.096;14.470;2023-08-06T11:11:14;1.07;;;0.57;;
67867;SDS011;54672;46.096;14.470;2023-08-06T11:13:41;2.65;;;0.70;;
67867;SDS011;54672;46.096;14.470;2023-08-06T11:16:08;1.17;;;0.52;;
67867;SDS011;54672;46.096;14.470;2023-08-06T11:18:34;0.82;;;0.50;;
67867;SDS011;54672;46.096;14.470;2023-08-06T11:21:00;0.60;;;0.50;;
67867;SDS011;54672;46.096;14.470;2023-08-06T11:23:26;1.60;;;0.55;;
67867;SDS011;54672;46.096;14.470;2023-08-06T11:25:54;1.00;;;0.68;;
67867;SDS011;54672;46.096;14.470;2023-08-06T11:28:20;0.90;;;0.65;;
67867;SDS011;54672;46.096;14.470;2023-08-06T11:30:49;0.35;;;0.32;;
67867;SDS011;54672;46.096;14.470;2023-08-06T11:33:19;0.73;;;0.50;;
67867;SDS011;54672;46.096;14.470;2023-08-06T11:35:47;1.27;;;0.65;;
67867;SDS011;54672;46.096;14.470;2023-08-06T11:38:13;1.70;;;0.70;;
67867;SDS011;54672;46.096;14.470;2023-08-06T11:40:38;1.05;;;0.63;;
67867;SDS011;54672;46.096;14.470;2023-08-06T11:43:05;0.52;;;0.40;;
67867;SDS011;54672;46.096;14.470;2023-08-06T11:45:31;1.40;;;0.43;;
67867;SDS011;54672;46.096;14.470;2023-08-06T11:47:59;0.80;;;0.50;;
67867;SDS011;54672;46.096;14.470;2023-08-06T11:50:25;0.82;;;0.50;;
67867;SDS011;54672;46.096;14.470;2023-08-06T11:52:58;0.77;;;0.40;;
67867;SDS011;54672;46.096;14.470;2023-08-06T11:55:25;1.45;;;0.50;;
67867;SDS011;54672;46.096;14.470;2023-08-06T11:57:53;0.55;;;0.40;;
67867;SDS011;54672;46.096;14.470;2023-08-06T12:00:19;3.08;;;1.65;;
67867;SDS011;54672;46.096;14.470;2023-08-06T12:02:49;1.00;;;0.70;;
67867;SDS011;54672;46.096;14.470;2023-08-06T12:05:17;1.60;;;0.90;;
67867;SDS011;54672;46.096;14.470;2023-08-06T12:07:51;3.17;;;0.80;;
67867;SDS011;54672;46.096;14.470;2023-08-06T12:10:19;1.98;;;1.00;;
67867;SDS011;54672;46.096;14.470;2023-08-06T12:12:45;2.28;;;1.20;;
67867;SDS011;54672;46.096;14.470;2023-08-06T12:15:11;2.05;;;1.10;;
67867;SDS011;54672;46.096;14.470;2023-08-06T12:17:37;3.45;;;0.80;;
67867;SDS011;54672;46.096;14.470;2023-08-06T12:20:04;1.65;;;0.80;;
67867;SDS011;54672;46.096;14.470;2023-08-06T12:22:31;1.90;;;0.68;;
67867;SDS011;54672;46.096;14.470;2023-08-06T12:25:00;1.35;;;0.85;;
67867;SDS011;54672;46.096;14.470;2023-08-06T12:27:34;2.70;;;1.00;;
67867;SDS011;54672;46.096;14.470;2023-08-06T12:30:00;0.50;;;0.47;;
67867;SDS011;54672;46.096;14.470;2023-08-06T12:32:26;2.15;;;0.55;;
67867;SDS011;54672;46.096;14.470;2023-08-06T12:34:51;1.90;;;0.70;;
67867;SDS011;54672;46.096;14.470;2023-08-06T12:37:17;0.80;;;0.50;;
67867;SDS011;54672;46.096;14.470;2023-08-06T12:39:42;1.60;;;0.52;;
67867;SDS011;54672;46.096;14.470;2023-08-06T12:42:08;0.50;;;0.50;;
67867;SDS011;54672;46.096;14.470;2023-08-06T12:44:34;0.50;;;0.40;;
67867;SDS011;54672;46.096;14.470;2023-08-06T12:46:59;0.95;;;0.40;;
67867;SDS011;54672;46.096;14.470;2023-08-06T12:49:25;0.65;;;0.50;;
67867;SDS011;54672;46.096;14.470;2023-08-06T12:51:51;2.70;;;0.80;;
67867;SDS011;54672;46.096;14.470;2023-08-06T12:54:18;1.67;;;0.68;;
67867;SDS011;54672;46.096;14.470;2023-08-06T12:56:45;1.85;;;0.60;;
67867;SDS011;54672;46.096;14.470;2023-08-06T12:59:11;0.38;;;0.35;;
67867;SDS011;54672;46.096;14.470;2023-08-06T13:01:38;1.30;;;0.60;;
67867;SDS011;54672;46.096;14.470;2023-08-06T13:04:04;1.65;;;0.85;;
67867;SDS011;54672;46.096;14.470;2023-08-06T13:06:29;0.80;;;0.60;;
67867;SDS011;54672;46.096;14.470;2023-08-06T13:08:56;0.98;;;0.50;;
67867;SDS011;54672;46.096;14.470;2023-08-06T13:11:25;0.70;;;0.40;;
67867;SDS011;54672;46.096;14.470;2023-08-06T13:13:50;0.45;;;0.30;;
67867;SDS011;54672;46.096;14.470;2023-08-06T13:16:16;0.68;;;0.40;;
67867;SDS011;54672;46.096;14.470;2023-08-06T13:18:41;1.58;;;0.80;;
67867;SDS011;54672;46.096;14.470;2023-08-06T13:21:07;1.98;;;0.80;;
67867;SDS011;54672;46.096;14.470;2023-08-06T13:23:32;1.73;;;0.80;;
67867;SDS011;54672;46.096;14.470;2023-08-06T13:25:58;1.95;;;0.80;;
67867;SDS011;54672;46.096;14.470;2023-08-06T13:28:23;1.02;;;0.60;;
67867;SDS011;54672;46.096;14.470;2023-08-06T13:30:49;0.82;;;0.55;;
67867;SDS011;54672;46.096;14.470;2023-08-06T13:33:15;2.03;;;0.93;;
67867;SDS011;54672;46.096;14.470;2023-08-06T13:35:41;0.80;;;0.45;;
67867;SDS011;54672;46.096;14.470;2023-08-06T13:38:06;1.58;;;0.65;;
67867;SDS011;54672;46.096;14.470;2023-08-06T13:40:32;1.25;;;0.70;;
67867;SDS011;54672;46.096;14.470;2023-08-06T13:42:59;1.27;;;0.70;;
67867;SDS011;54672;46.096;14.470;2023-08-06T13:45:24;1.20;;;0.60;;
67867;SDS011;54672;46.096;14.470;2023-08-06T13:47:50;1.50;;;0.70;;
67867;SDS011;54672;46.096;14.470;2023-08-06T13:50:16;1.52;;;0.98;;
67867;SDS011;54672;46.096;14.470;2023-08-06T13:52:41;0.70;;;0.50;;
67867;SDS011;54672;46.096;14.470;2023-08-06T13:55:07;2.97;;;0.77;;
67867;SDS011;54672;46.096;14.470;2023-08-06T13:57:34;1.40;;;0.70;;
67867;SDS011;54672;46.096;14.470;2023-08-06T13:59:59;1.23;;;0.70;;
67867;SDS011;54672;46.096;14.470;2023-08-06T14:02:25;0.88;;;0.60;;
67867;SDS011;54672;46.096;14.470;2023-08-06T14:04:53;1.08;;;0.65;;
67867;SDS011;54672;46.096;14.470;2023-08-06T14:07:19;2.38;;;0.70;;
67867;SDS011;54672;46.096;14.470;2023-08-06T14:09:46;1.27;;;0.75;;
67867;SDS011;54672;46.096;14.470;2023-08-06T14:12:12;2.58;;;1.13;;
67867;SDS011;54672;46.096;14.470;2023-08-06T14:14:38;2.17;;;0.75;;
67867;SDS011;54672;46.096;14.470;2023-08-06T14:17:04;3.13;;;0.47;;
67867;SDS011;54672;46.096;14.470;2023-08-06T14:19:30;1.73;;;0.70;;
67867;SDS011;54672;46.096;14.470;2023-08-06T14:21:55;1.83;;;1.08;;
67867;SDS011;54672;46.096;14.470;2023-08-06T14:24:21;3.67;;;0.65;;
67867;SDS011;54672;46.096;14.470;2023-08-06T14:26:46;0.90;;;0.40;;
67867;SDS011;54672;46.096;14.470;2023-08-06T14:29:12;1.05;;;0.63;;
67867;SDS011;54672;46.096;14.470;2023-08-06T14:31:38;1.90;;;0.60;;
67867;SDS011;54672;46.096;14.470;2023-08-06T14:34:04;0.82;;;0.60;;
67867;SDS011;54672;46.096;14.470;2023-08-06T14:36:30;1.13;;;0.60;;
67867;SDS011;54672;46.096;14.470;2023-08-06T14:38:55;0.90;;;0.50;;